Latest Coastal Weather Observations for Devonport Airport

IDT60701

Issued at 3:05 pm EST Tuesday 2 September 2014 (issued every 10 minutes, with the page automatically refreshed every 10 minutes)

About coastal observations | Map of coastal stations | Coastal observations for TAS | Marine services | Other Formats
Station Details ID: 091126 Name: DEVONPORT AIRPORT Lat: -41.17 Lon: 146.43 Height: 8.0 m
Data from the previous 72 hours. | See also: Recent months at Devonport Airport
Date/Time
EST
Temp

°C
Wind Pressure Rain
since 9am
mm
Weather Cloud Vis
km
Sea
Height
m
Swell
Dir
 
Speed
knots
Gust
knots
hPa Trend Height
m
Period
s
Dir
02/03:00pm 12.7 N 10 12 1017.6 - 0.0 - - 10 - - - -
02/02:30pm 12.7 N 11 12 1017.6 - 0.0 - - 10 - - - -
02/02:00pm 12.5 NNW 11 13 1017.4 - 0.0 - - 10 - - - -
02/01:30pm 12.5 NNW 10 11 1017.4 - 0.0 - - 10 - - - -
02/01:00pm 12.5 NNW 10 12 1017.5 - 0.0 - - 10 - - - -
02/12:30pm 12.3 NNW 9 11 1017.7 - 0.0 - - 10 - - - -
02/12:00pm 12.5 WNW 6 9 1017.9 - 0.0 - - 10 - - - -
02/11:30am 12.2 SSW 4 8 1018.1 - 0.0 - - 10 - - - -
02/11:00am 11.7 S 4 6 1018.2 - 0.0 - - 10 - - - -
02/10:30am 11.3 S 7 10 1018.2 - 0.0 - - 10 - - - -
02/10:00am 11.0 S 10 14 1018.0 - 0.0 - - 10 - - - -
02/09:30am 10.5 S 11 13 1017.7 - 0.0 - - 10 - - - -
02/09:00am 9.4 S 6 12 1017.5 - 5.6 - - 10 - - - -
02/08:30am 7.2 WSW 5 7 1017.3 - 5.6 - - 10 - - - -
02/08:00am 5.9 SSW 4 5 1016.9 - 5.6 - - 10 - - - -
02/07:30am 3.9 S 5 6 1016.5 - 5.6 - - 10 - - - -
02/07:00am 2.4 S 4 6 1016.0 - 5.6 - - 10 - - - -
02/06:30am 2.9 S 5 6 1015.6 - 5.6 - - 10 - - - -
02/06:00am 3.4 S 6 7 1015.1 - 5.4 - - 10 - - - -
02/05:30am 4.1 SSE 6 7 1014.7 - 5.4 - - 10 - - - -
02/05:00am 4.4 SSE 5 6 1014.2 - 5.4 - - 10 - - - -
02/04:30am 4.3 SSE 6 8 1013.8 - 5.4 - - 10 - - - -
02/04:00am 3.8 SW 4 6 1013.4 - 5.4 - - 10 - - - -
02/03:30am 4.7 S 5 5 1013.1 - 5.4 - - 10 - - - -
02/03:00am 5.2 S 5 5 1012.6 - 5.4 - - 10 - - - -
02/02:30am 5.0 S 5 6 1012.3 - 5.4 - - 10 - - - -
02/02:00am 5.5 S 4 4 1012.0 - 5.4 - - 10 - - - -
02/01:30am 7.0 SSW 5 7 1011.8 - 5.4 - - 10 - - - -
02/01:00am 6.2 SW 5 7 1011.4 - 5.4 - - 10 - - - -
02/12:30am 7.0 S 6 8 1011.1 - 5.4 - - 10 - - - -
02/12:00am 7.6 SSE 7 9 1010.8 - 5.4 - Partly cloudy 10 - - - -
 
Date/Time
EST
Temp

°C
Wind Pressure Rain
since 9am
mm
Weather Cloud Vis
km
Sea
Height
m
Swell
Dir
 
Speed
knots
Gust
knots
hPa Trend Height
m
Period
s
Dir
01/11:30pm 7.8 S 7 10 1010.3 - 5.4 - Partly cloudy 10 - - - -
01/11:00pm 8.2 S 9 12 1010.0 - 5.4 - Partly cloudy 10 - - - -
01/10:30pm 8.7 SSW 7 9 1009.9 - 5.4 - Cloudy 10 - - - -
01/10:00pm 8.6 S 7 8 1009.4 - 5.4 - Partly cloudy 10 - - - -
01/09:30pm 8.8 SE 7 11 1008.9 - 5.4 - Partly cloudy 10 - - - -
01/09:00pm 8.9 S 10 11 1008.2 - 5.4 - - 10 - - - -
01/08:30pm 9.4 SSW 6 8 1007.8 - 5.4 - - 10 - - - -
01/08:00pm 8.6 SSW 5 7 1007.3 - 5.4 - - 10 - - - -
01/07:30pm 8.7 SSE 5 6 1006.8 - 5.4 - - 10 - - - -
01/07:00pm 9.7 WSW 5 6 1006.2 - 5.4 - - 10 - - - -
01/06:30pm 10.0 WSW 7 8 1005.5 - 5.4 - - 10 - - - -
01/06:00pm 10.8 W 5 6 1005.2 - 5.4 - - 10 - - - -
01/05:30pm 12.3 WSW 7 9 1004.5 - 5.4 - - 10 - - - -
01/05:00pm 12.8 W 7 9 1004.2 - 5.4 - - 10 - - - -
01/04:30pm 12.9 WNW 11 14 1004.0 - 5.4 - - 10 - - - -
01/04:00pm 12.9 NW 12 15 1003.9 - 5.4 - Partly cloudy 10 - - - -
01/03:30pm 12.8 NW 14 17 1003.8 - 5.4 - Partly cloudy 10 - - - -
01/03:00pm 12.7 NW 15 19 1003.4 - 5.4 Drizzle Cloudy 10 - - - -
01/02:30pm 12.5 NW 16 19 1003.4 - 5.4 - Partly cloudy 10 - - - -
01/02:00pm 12.6 NW 16 22 1003.2 - 5.4 - Partly cloudy 10 - - - -
01/01:30pm 12.4 NW 18 22 1003.4 - 5.4 - Partly cloudy 8 - - - -
01/01:17pm 12.4 NW 19 23 1003.3 - 5.2 - Partly cloudy 8 - - - -
01/01:00pm 12.5 NW 18 23 1003.3 - 5.0 - Partly cloudy 9 - - - -
01/12:30pm 12.5 NW 23 31 1003.3 - 4.8 - Partly cloudy 10 - - - -
01/12:16pm 12.7 NNW 25 31 1003.1 - 4.8 - Partly cloudy 10 - - - -
01/12:00pm 12.8 N 19 25 1003.3 - 4.6 Drizzle Cloudy 10 - - - -
01/11:30am 12.7 N 16 22 1004.4 - 4.2 - Partly cloudy 9 - - - -
01/11:20am 12.5 N 17 21 1004.7 - 4.0 - Partly cloudy 8 - - - -
01/11:00am 12.6 N 16 20 1005.0 - 3.4 - Partly cloudy 10 - - - -
01/10:30am 12.7 N 15 19 1005.3 - 2.6 - Partly cloudy 9 - - - -
01/10:00am 12.7 NNW 12 15 1005.8 - 1.8 - Partly cloudy 9 - - - -
01/09:30am 12.8 NNW 14 18 1006.1 - 1.0 - Partly cloudy 8 - - - -
01/09:00am 13.2 NNW 9 12 1006.3 - 1.0 Showers Partly cloudy 10 - - - -
01/08:30am 13.3 N 7 10 1006.3 - 0.6 - Partly cloudy 10 - - - -
01/08:00am 11.6 NNE 1 5 1006.2 - 0.6 - Partly cloudy 10 - - - -
01/07:30am 11.4 E 1 3 1006.5 - 0.6 - Partly cloudy 10 - - - -
01/07:00am 10.8 SSE 6 7 1006.6 - 0.4 - Cloudy 10 - - - -
01/06:30am 12.8 E 6 9 1006.6 - 0.2 - Cloudy 10 - - - -
01/06:00am 12.6 ENE 7 12 1006.8 - 0.2 Drizzle Cloudy 10 - - - -
01/05:30am 12.3 ENE 8 11 1007.1 - 0.2 - Cloudy 10 - - - -
01/05:00am 12.0 E 4 9 1007.2 - 0.0 - Partly cloudy 10 - - - -
01/04:30am 10.7 S 6 7 1007.7 - 0.0 - Partly cloudy 10 - - - -
01/04:00am 10.5 SSE 6 8 1007.7 - 0.0 - Partly cloudy 10 - - - -
01/03:30am 10.7 SSE 7 9 1007.9 - 0.0 - Partly cloudy 10 - - - -
01/03:00am 10.7 S 6 8 1008.2 - 0.0 Drizzle Mostly cloudy 10 - - - -
01/02:30am 10.6 S 6 7 1008.9 - 0.0 - Partly cloudy 10 - - - -
01/02:00am 12.0 WSW 12 14 1009.4 - 0.0 - Partly cloudy 10 - - - -
01/01:30am 12.3 E 10 13 1009.3 - 0.0 - Partly cloudy 10 - - - -
01/01:00am 11.9 E 10 11 1009.8 - 0.0 - Partly cloudy 10 - - - -
01/12:30am 11.9 ENE 10 12 1010.4 - 0.0 - Partly cloudy 10 - - - -
01/12:00am 11.5 ENE 9 11 1010.8 - 0.0 - Cloudy 10 - - - -
 
Date/Time
EST
Temp

°C
Wind Pressure Rain
since 9am
mm
Weather Cloud Vis
km
Sea
Height
m
Swell
Dir
 
Speed
knots
Gust
knots
hPa Trend Height
m
Period
s
Dir
31/11:30pm 9.3 SE 5 6 1011.4 - 0.0 - - 10 - - - -
31/11:00pm 9.7 S 6 7 1011.8 - 0.0 - - 10 - - - -
31/10:30pm 10.4 ESE 6 7 1012.0 - 0.0 - - 10 - - - -
31/10:00pm 10.3 SE 6 8 1012.3 - 0.0 - - 10 - - - -
31/09:30pm 10.7 SSE 7 8 1012.6 - 0.0 - Partly cloudy 10 - - - -
31/09:00pm 10.7 SSE 7 8 1013.1 - 0.0 - Cloudy 10 - - - -
31/08:30pm 10.5 SSE 6 8 1013.2 - 0.0 - Partly cloudy 10 - - - -
31/08:00pm 10.6 ESE 4 5 1013.4 - 0.0 - Partly cloudy 10 - - - -
31/07:30pm 10.6 ESE 4 5 1013.6 - 0.0 - - 10 - - - -
31/07:00pm 11.4 E 4 5 1013.7 - 0.0 - - 10 - - - -
31/06:30pm 11.9 E 6 7 1013.7 - 0.0 - - 10 - - - -
31/06:18pm 12.2 E 7 9 1013.7 - 0.0 - Partly cloudy 10 - - - -
31/06:00pm 12.3 E 5 8 1013.7 - 0.0 - Cloudy 10 - - - -
31/05:30pm 13.0 ENE 8 11 1013.9 - 0.0 - Cloudy 10 - - - -
31/05:00pm 13.1 ENE 9 11 1014.0 - 0.0 - Cloudy 10 - - - -
31/04:30pm 13.2 ENE 10 11 1014.1 - 0.0 - Cloudy 10 - - - -
31/04:23pm 13.3 ENE 10 12 1014.1 - 0.0 - Cloudy 10 - - - -
31/04:00pm 13.3 ENE 11 13 1014.2 - 0.0 - Cloudy 10 - - - -
31/03:30pm 13.4 ENE 11 13 1014.6 - 0.0 - Cloudy 10 - - - -
31/03:00pm 13.6 NE 10 12 1015.2 - 0.0 - Mostly cloudy 10 - - - -
31/02:30pm 13.9 NE 9 12 1015.4 - 0.0 - Cloudy 10 - - - -
31/02:00pm 14.0 NE 10 11 1015.7 - 0.0 - Cloudy 10 - - - -
31/01:30pm 14.2 NE 10 12 1016.0 - 0.0 - Cloudy 10 - - - -
31/01:00pm 14.1 NE 11 13 1016.4 - 0.0 - Cloudy 10 - - - -
31/12:30pm 14.1 NE 12 14 1016.9 - 0.0 - Cloudy 10 - - - -
31/12:00pm 14.0 NE 11 13 1017.5 - 0.0 - Cloudy 10 - - - -
31/11:30am 13.7 ENE 11 13 1017.9 - 0.0 - Cloudy 10 - - - -
31/11:00am 13.2 ENE 10 12 1018.3 - 0.0 - Cloudy 10 - - - -
31/10:41am 12.9 ENE 8 10 1018.6 - 0.0 - Partly cloudy 10 - - - -
31/10:30am 12.9 ENE 8 11 1018.7 - 0.0 - Partly cloudy 10 - - - -
31/10:00am 12.0 S 6 7 1019.1 - 0.0 - Cloudy 10 - - - -
31/09:35am 11.8 SSE 5 7 1019.4 - 0.0 - Partly cloudy 10 - - - -
31/09:30am 11.7 SSE 6 7 1019.4 - 0.0 - Partly cloudy 10 - - - -
31/09:00am 11.1 S 6 7 1019.5 - 0.0 - Mostly cloudy 10 - - - -
31/08:30am 10.5 SSE 6 7 1019.7 - 0.0 - Partly cloudy 10 - - - -
31/08:00am 10.1 SSE 6 7 1019.8 - 0.0 - Partly cloudy 10 - - - -
31/07:30am 9.7 SSE 6 8 1019.9 - 0.0 - Partly cloudy 10 - - - -
31/07:00am 9.6 S 5 6 1019.9 - 0.0 - Cloudy 10 - - - -
31/06:30am 9.7 S 6 6 1019.8 - 0.0 - Partly cloudy 10 - - - -
31/06:00am 9.6 SSE 7 8 1019.8 - 0.0 - Cloudy 10 - - - -
31/05:30am 9.6 SSE 5 6 1020.0 - 0.0 - Partly cloudy 10 - - - -
31/05:00am 9.3 SSE 7 9 1019.9 - 0.0 - Cloudy 10 - - - -
31/04:30am 9.1 SSE 7 9 1020.0 - 0.0 - Cloudy 10 - - - -
31/04:00am 8.9 S 8 9 1020.2 - 0.0 - Cloudy 10 - - - -
31/03:30am 9.3 SSE 8 9 1020.6 - 0.0 - Cloudy 10 - - - -
31/03:00am 9.0 SSE 8 9 1020.9 - 0.0 - Cloudy 10 - - - -
31/02:30am 8.8 SSE 7 9 1021.5 - 0.0 - Cloudy 10 - - - -
31/02:00am 8.2 SSE 8 10 1022.1 - 0.0 - Cloudy 10 - - - -
31/01:30am 7.9 S 8 9 1022.4 - 0.0 - Cloudy 10 - - - -
31/01:00am 7.1 S 9 10 1022.5 - 0.0 - Cloudy 10 - - - -
31/12:30am 6.8 S 9 10 1022.6 - 0.0 - - 10 - - - -
31/12:00am 7.0 S 9 10 1022.6 - 0.0 - - 10 - - - -
 
Date/Time
EST
Temp

°C
Wind Pressure Rain
since 9am
mm
Weather Cloud Vis
km
Sea
Height
m
Swell
Dir
 
Speed
knots
Gust
knots
hPa Trend Height
m
Period
s
Dir
30/11:30pm 7.3 S 9 12 1022.9 - 0.0 - - 10 - - - -
30/11:00pm 7.2 S 8 10 1023.5 - 0.0 - - 10 - - - -
30/10:30pm 7.8 SSE 9 10 1023.9 - 0.0 - Partly cloudy 10 - - - -
30/10:00pm 8.1 S 9 10 1024.5 - 0.0 - Partly cloudy 10 - - - -
30/09:30pm 8.4 S 9 10 1024.7 - 0.0 - - 10 - - - -
30/09:00pm 8.0 SSE 7 9 1024.7 - 0.0 - - 10 - - - -
30/08:30pm 7.9 S 7 8 1024.8 - 0.0 - - 10 - - - -
30/08:00pm 8.3 SSE 7 8 1024.8 - 0.0 - - 10 - - - -
30/07:30pm 8.2 SE 5 6 1024.7 - 0.0 - - 10 - - - -
30/07:00pm 9.1 ESE 5 6 1024.6 - 0.0 - - 10 - - - -
30/06:30pm 9.7 ESE 5 5 1024.8 - 0.0 - - 10 - - - -
30/06:00pm 10.1 E 5 6 1024.7 - 0.0 - - 10 - - - -
30/05:30pm 11.7 NE 7 9 1024.9 - 0.0 - - 10 - - - -
30/05:00pm 12.9 NE 8 9 1025.2 - 0.0 - - 10 - - - -
30/04:30pm 13.2 NE 8 9 1025.4 - 0.0 - - 10 - - - -
30/04:00pm 13.8 NE 8 11 1025.4 - 0.0 - - 10 - - - -
30/03:30pm 13.6 NE 9 11 1025.5 - 0.0 - - 10 - - - -

Other Formats:

Comma delimited format used in spreadsheet applications
http://www.bom.gov.au/fwo/IDT60701/IDT60701.95960.axf

JavaScript Object Notation format (JSON) in row-major order
http://www.bom.gov.au/fwo/IDT60701/IDT60701.95960.json